sensor_id;sensor_type;location;lat;lon;timestamp;pressure;altitude;pressure_sealevel;temperature;humidity
79589;BME280;69067;51.930;4.492;2024-02-23T00:00:45;98608.47;;;25.73;37.54
79589;BME280;69067;51.930;4.492;2024-02-23T00:03:10;98587.50;;;25.59;37.92
79589;BME280;69067;51.930;4.492;2024-02-23T00:05:36;98603.31;;;25.72;37.42
79589;BME280;69067;51.930;4.492;2024-02-23T00:08:02;98589.44;;;25.58;37.46
79589;BME280;69067;51.930;4.492;2024-02-23T00:10:28;98591.88;;;25.55;38.00
79589;BME280;69067;51.930;4.492;2024-02-23T00:12:53;98616.41;;;25.65;37.93
79589;BME280;69067;51.930;4.492;2024-02-23T00:15:19;98619.69;;;25.62;37.46
79589;BME280;69067;51.930;4.492;2024-02-23T00:17:45;98622.41;;;25.62;37.12
79589;BME280;69067;51.930;4.492;2024-02-23T00:20:11;98615.31;;;25.50;37.29
79589;BME280;69067;51.930;4.492;2024-02-23T00:22:37;98627.31;;;25.60;37.72
79589;BME280;69067;51.930;4.492;2024-02-23T00:25:03;98637.13;;;25.61;36.92
79589;BME280;69067;51.930;4.492;2024-02-23T00:27:29;98640.13;;;25.49;37.98
79589;BME280;69067;51.930;4.492;2024-02-23T00:29:54;98639.00;;;25.55;37.90
79589;BME280;69067;51.930;4.492;2024-02-23T00:32:20;98637.63;;;25.52;37.83
79589;BME280;69067;51.930;4.492;2024-02-23T00:34:46;98629.75;;;25.46;37.81
79589;BME280;69067;51.930;4.492;2024-02-23T00:37:12;98631.66;;;25.45;38.03
79589;BME280;69067;51.930;4.492;2024-02-23T00:39:37;98647.44;;;25.54;37.94
79589;BME280;69067;51.930;4.492;2024-02-23T00:42:03;98645.59;;;25.64;37.60
79589;BME280;69067;51.930;4.492;2024-02-23T00:44:29;98652.63;;;25.55;37.81
79589;BME280;69067;51.930;4.492;2024-02-23T00:46:55;98652.94;;;25.64;36.76
79589;BME280;69067;51.930;4.492;2024-02-23T00:49:23;98664.06;;;25.52;37.21
79589;BME280;69067;51.930;4.492;2024-02-23T00:51:49;98665.19;;;25.56;37.50
79589;BME280;69067;51.930;4.492;2024-02-23T00:54:15;98667.09;;;25.66;37.01
79589;BME280;69067;51.930;4.492;2024-02-23T00:56:40;98673.94;;;25.58;37.87
79589;BME280;69067;51.930;4.492;2024-02-23T00:59:06;98665.75;;;25.58;37.41
79589;BME280;69067;51.930;4.492;2024-02-23T01:01:32;98678.00;;;25.61;37.51
79589;BME280;69067;51.930;4.492;2024-02-23T01:03:57;98668.72;;;25.57;37.69
79589;BME280;69067;51.930;4.492;2024-02-23T01:06:23;98668.75;;;25.52;37.56
79589;BME280;69067;51.930;4.492;2024-02-23T01:08:50;98680.72;;;25.56;37.28
79589;BME280;69067;51.930;4.492;2024-02-23T01:11:16;98682.06;;;25.48;37.71
79589;BME280;69067;51.930;4.492;2024-02-23T01:13:42;98695.16;;;25.56;37.15
79589;BME280;69067;51.930;4.492;2024-02-23T01:16:07;98708.78;;;25.56;37.34
79589;BME280;69067;51.930;4.492;2024-02-23T01:18:33;98703.63;;;25.60;37.78
79589;BME280;69067;51.930;4.492;2024-02-23T01:20:59;98699.81;;;25.50;37.58
79589;BME280;69067;51.930;4.492;2024-02-23T01:23:25;98710.69;;;25.56;37.26
79589;BME280;69067;51.930;4.492;2024-02-23T01:25:51;98699.81;;;25.50;37.15
79589;BME280;69067;51.930;4.492;2024-02-23T01:28:16;98700.91;;;25.44;37.39
79589;BME280;69067;51.930;4.492;2024-02-23T01:30:42;98719.94;;;25.55;37.55
79589;BME280;69067;51.930;4.492;2024-02-23T01:33:08;98731.44;;;25.62;37.70
79589;BME280;69067;51.930;4.492;2024-02-23T01:35:34;98720.22;;;25.48;37.66
79589;BME280;69067;51.930;4.492;2024-02-23T01:38:00;98722.13;;;25.42;38.11
79589;BME280;69067;51.930;4.492;2024-02-23T01:40:26;98743.94;;;25.42;37.92
79589;BME280;69067;51.930;4.492;2024-02-23T01:43:05;98737.94;;;25.50;37.72
79589;BME280;69067;51.930;4.492;2024-02-23T01:45:31;98725.66;;;25.53;37.81
79589;BME280;69067;51.930;4.492;2024-02-23T01:47:59;98740.41;;;25.57;37.62
79589;BME280;69067;51.930;4.492;2024-02-23T01:50:26;98734.13;;;25.52;37.47
79589;BME280;69067;51.930;4.492;2024-02-23T01:52:54;98739.59;;;25.57;38.02
79589;BME280;69067;51.930;4.492;2024-02-23T01:55:23;98744.25;;;25.61;37.35
79589;BME280;69067;51.930;4.492;2024-02-23T01:57:49;98736.31;;;25.44;38.56
79589;BME280;69067;51.930;4.492;2024-02-23T02:00:16;98739.31;;;25.48;37.59
79589;BME280;69067;51.930;4.492;2024-02-23T02:02:44;98728.66;;;25.31;38.75
79589;BME280;69067;51.930;4.492;2024-02-23T02:05:10;98744.47;;;25.55;37.70
79589;BME280;69067;51.930;4.492;2024-02-23T02:07:37;98740.13;;;25.43;38.05
79589;BME280;69067;51.930;4.492;2024-02-23T02:10:06;98756.44;;;25.38;38.17
79589;BME280;69067;51.930;4.492;2024-02-23T02:12:34;98745.81;;;25.52;37.70
79589;BME280;69067;51.930;4.492;2024-02-23T02:15:00;98749.38;;;25.37;37.96
79589;BME280;69067;51.930;4.492;2024-02-23T02:17:27;98754.28;;;25.35;38.12
79589;BME280;69067;51.930;4.492;2024-02-23T02:19:53;98746.09;;;25.35;38.29
79589;BME280;69067;51.930;4.492;2024-02-23T02:22:19;98749.66;;;25.36;38.15
79589;BME280;69067;51.930;4.492;2024-02-23T02:24:45;98739.03;;;25.44;37.53
79589;BME280;69067;51.930;4.492;2024-02-23T02:27:12;98763.28;;;25.46;38.03
79589;BME280;69067;51.930;4.492;2024-02-23T02:29:38;98761.38;;;25.46;38.28
79589;BME280;69067;51.930;4.492;2024-02-23T02:32:04;98758.63;;;25.41;37.95
79589;BME280;69067;51.930;4.492;2024-02-23T02:34:30;98770.34;;;25.52;37.47
79589;BME280;69067;51.930;4.492;2024-02-23T02:36:55;98759.72;;;25.40;38.45
79589;BME280;69067;51.930;4.492;2024-02-23T02:39:21;98764.34;;;25.40;38.22
79589;BME280;69067;51.930;4.492;2024-02-23T02:41:50;98774.16;;;25.41;38.17
79589;BME280;69067;51.930;4.492;2024-02-23T02:44:16;98776.91;;;25.46;37.73
79589;BME280;69067;51.930;4.492;2024-02-23T02:46:42;98770.88;;;25.39;38.44
79589;BME280;69067;51.930;4.492;2024-02-23T02:49:08;98775.25;;;25.45;37.86
79589;BME280;69067;51.930;4.492;2024-02-23T02:51:33;98771.72;;;25.34;38.44
79589;BME280;69067;51.930;4.492;2024-02-23T02:53:59;98758.34;;;25.28;38.21
79589;BME280;69067;51.930;4.492;2024-02-23T02:56:25;98754.81;;;25.32;38.32
79589;BME280;69067;51.930;4.492;2024-02-23T02:58:50;98758.63;;;25.41;37.75
79589;BME280;69067;51.930;4.492;2024-02-23T03:01:16;98773.63;;;25.34;37.73
79589;BME280;69067;51.930;4.492;2024-02-23T03:03:42;98761.91;;;25.33;38.18
79589;BME280;69067;51.930;4.492;2024-02-23T03:06:08;98772.81;;;25.43;37.80
79589;BME280;69067;51.930;4.492;2024-02-23T03:08:34;98774.44;;;25.29;37.72
79589;BME280;69067;51.930;4.492;2024-02-23T03:11:00;98785.88;;;25.46;37.81
79589;BME280;69067;51.930;4.492;2024-02-23T03:13:26;98773.63;;;25.34;38.13
79589;BME280;69067;51.930;4.492;2024-02-23T03:15:51;98772.50;;;25.20;38.10
79589;BME280;69067;51.930;4.492;2024-02-23T03:18:17;98767.34;;;25.33;38.22
79589;BME280;69067;51.930;4.492;2024-02-23T03:20:44;98766.00;;;25.41;37.95
79589;BME280;69067;51.930;4.492;2024-02-23T03:23:11;98766.25;;;25.34;38.09
79589;BME280;69067;51.930;4.492;2024-02-23T03:25:37;98766.22;;;25.19;37.83
79589;BME280;69067;51.930;4.492;2024-02-23T03:28:03;98773.88;;;25.27;37.82
79589;BME280;69067;51.930;4.492;2024-02-23T03:30:28;98775.81;;;25.37;37.48
79589;BME280;69067;51.930;4.492;2024-02-23T03:32:54;98785.06;;;25.36;37.67
79589;BME280;69067;51.930;4.492;2024-02-23T03:35:20;98776.91;;;25.36;37.54
79589;BME280;69067;51.930;4.492;2024-02-23T03:37:46;98770.59;;;25.25;37.81
79589;BME280;69067;51.930;4.492;2024-02-23T03:40:12;98789.44;;;25.37;37.73
79589;BME280;69067;51.930;4.492;2024-02-23T03:42:38;98784.22;;;25.25;37.70
79589;BME280;69067;51.930;4.492;2024-02-23T03:45:04;98784.47;;;25.19;38.00
79589;BME280;69067;51.930;4.492;2024-02-23T03:47:30;98779.31;;;25.27;37.92
79589;BME280;69067;51.930;4.492;2024-02-23T03:49:56;98778.75;;;25.25;37.75
79589;BME280;69067;51.930;4.492;2024-02-23T03:52:22;98773.88;;;25.22;37.71
79589;BME280;69067;51.930;4.492;2024-02-23T03:54:47;98772.22;;;25.21;37.76
79589;BME280;69067;51.930;4.492;2024-02-23T03:57:14;98786.09;;;25.15;37.96
79589;BME280;69067;51.930;4.492;2024-02-23T03:59:51;98770.59;;;25.15;37.97
79589;BME280;69067;51.930;4.492;2024-02-23T04:02:18;98783.91;;;25.06;38.08
79589;BME280;69067;51.930;4.492;2024-02-23T04:04:44;98780.34;;;25.11;37.80
79589;BME280;69067;51.930;4.492;2024-02-23T04:07:10;98792.63;;;25.19;37.63
79589;BME280;69067;51.930;4.492;2024-02-23T04:09:36;98791.28;;;25.21;37.40
79589;BME280;69067;51.930;4.492;2024-02-23T04:12:01;98788.53;;;25.06;37.52
79589;BME280;69067;51.930;4.492;2024-02-23T04:14:27;98803.78;;;25.12;38.32
79589;BME280;69067;51.930;4.492;2024-02-23T04:16:53;98795.34;;;25.08;38.38
79589;BME280;69067;51.930;4.492;2024-02-23T04:19:19;98784.19;;;25.10;37.84
79589;BME280;69067;51.930;4.492;2024-02-23T04:21:44;98790.69;;;25.04;38.26
79589;BME280;69067;51.930;4.492;2024-02-23T04:24:10;98792.38;;;25.20;37.48
79589;BME280;69067;51.930;4.492;2024-02-23T04:26:36;98778.72;;;25.05;38.42
79589;BME280;69067;51.930;4.492;2024-02-23T04:29:02;98787.44;;;25.12;37.86
79589;BME280;69067;51.930;4.492;2024-02-23T04:31:27;98801.91;;;25.18;38.14
79589;BME280;69067;51.930;4.492;2024-02-23T04:33:53;98799.16;;;25.13;38.08
79589;BME280;69067;51.930;4.492;2024-02-23T04:36:20;98805.72;;;25.17;37.78
79589;BME280;69067;51.930;4.492;2024-02-23T04:38:48;98803.28;;;25.25;38.10
79589;BME280;69067;51.930;4.492;2024-02-23T04:41:14;98800.81;;;25.19;38.25
79589;BME280;69067;51.930;4.492;2024-02-23T04:43:40;98816.88;;;25.10;38.11
79589;BME280;69067;51.930;4.492;2024-02-23T04:46:06;98813.34;;;25.20;38.14
79589;BME280;69067;51.930;4.492;2024-02-23T04:48:31;98802.41;;;25.04;37.83
79589;BME280;69067;51.930;4.492;2024-02-23T04:50:58;98801.88;;;25.07;37.62
79589;BME280;69067;51.930;4.492;2024-02-23T04:53:23;98795.88;;;25.10;38.15
79589;BME280;69067;51.930;4.492;2024-02-23T04:55:49;98797.44;;;24.91;38.55
79589;BME280;69067;51.930;4.492;2024-02-23T04:58:15;98797.00;;;25.09;38.08
79589;BME280;69067;51.930;4.492;2024-02-23T05:00:41;98787.97;;;25.04;38.30
79589;BME280;69067;51.930;4.492;2024-02-23T05:03:07;98783.34;;;25.04;38.38
79589;BME280;69067;51.930;4.492;2024-02-23T05:05:33;98783.63;;;25.03;38.52
79589;BME280;69067;51.930;4.492;2024-02-23T05:08:00;98788.22;;;24.97;38.27
79589;BME280;69067;51.930;4.492;2024-02-23T05:10:26;98797.00;;;25.09;37.97
79589;BME280;69067;51.930;4.492;2024-02-23T05:12:51;98801.31;;;25.05;37.73
79589;BME280;69067;51.930;4.492;2024-02-23T05:15:17;98785.78;;;25.01;38.39
79589;BME280;69067;51.930;4.492;2024-02-23T05:17:43;98786.25;;;24.88;37.95
79589;BME280;69067;51.930;4.492;2024-02-23T05:20:09;98796.94;;;24.99;38.05
79589;BME280;69067;51.930;4.492;2024-02-23T05:22:39;98791.44;;;24.89;38.51
79589;BME280;69067;51.930;4.492;2024-02-23T05:25:06;98792.59;;;25.03;38.00
79589;BME280;69067;51.930;4.492;2024-02-23T05:27:32;98809.50;;;25.05;38.28
79589;BME280;69067;51.930;4.492;2024-02-23T05:29:58;98778.97;;;24.98;38.08
79589;BME280;69067;51.930;4.492;2024-02-23T05:32:24;98779.25;;;25.02;38.08
79589;BME280;69067;51.930;4.492;2024-02-23T05:34:50;98786.88;;;24.95;38.50
79589;BME280;69067;51.930;4.492;2024-02-23T05:37:18;98776.81;;;25.05;38.28
79589;BME280;69067;51.930;4.492;2024-02-23T05:39:44;98767.50;;;24.96;37.71
79589;BME280;69067;51.930;4.492;2024-02-23T05:42:12;98764.47;;;24.88;38.17
79589;BME280;69067;51.930;4.492;2024-02-23T05:44:38;98756.34;;;24.93;38.18
79589;BME280;69067;51.930;4.492;2024-02-23T05:47:05;98766.38;;;24.87;38.46
79589;BME280;69067;51.930;4.492;2024-02-23T05:49:31;98783.59;;;24.93;38.29
79589;BME280;69067;51.930;4.492;2024-02-23T05:51:56;98769.34;;;24.81;38.51
79589;BME280;69067;51.930;4.492;2024-02-23T05:54:22;98766.91;;;24.84;37.62
79589;BME280;69067;51.930;4.492;2024-02-23T05:56:48;98755.47;;;24.82;38.39
79589;BME280;69067;51.930;4.492;2024-02-23T05:59:14;98786.81;;;24.90;37.99
79589;BME280;69067;51.930;4.492;2024-02-23T06:01:39;98764.69;;;24.76;37.99
79589;BME280;69067;51.930;4.492;2024-02-23T06:04:05;98766.03;;;24.68;38.91
79589;BME280;69067;51.930;4.492;2024-02-23T06:06:31;98771.81;;;24.87;38.86
79589;BME280;69067;51.930;4.492;2024-02-23T06:08:57;98780.50;;;24.84;37.87
79589;BME280;69067;51.930;4.492;2024-02-23T06:11:22;98774.22;;;24.68;38.37
79589;BME280;69067;51.930;4.492;2024-02-23T06:13:48;98790.59;;;24.84;38.54
79589;BME280;69067;51.930;4.492;2024-02-23T06:16:14;98781.38;;;24.90;38.19
79589;BME280;69067;51.930;4.492;2024-02-23T06:18:39;98780.81;;;24.88;38.32
79589;BME280;69067;51.930;4.492;2024-02-23T06:21:16;98790.38;;;24.90;38.05
79589;BME280;69067;51.930;4.492;2024-02-23T06:23:43;98781.31;;;24.80;38.50
79589;BME280;69067;51.930;4.492;2024-02-23T06:26:10;98775.88;;;24.85;37.94
79589;BME280;69067;51.930;4.492;2024-02-23T06:28:37;98787.09;;;24.88;37.92
79589;BME280;69067;51.930;4.492;2024-02-23T06:31:07;98782.41;;;24.79;38.16
79589;BME280;69067;51.930;4.492;2024-02-23T06:33:33;98772.03;;;24.70;38.26
79589;BME280;69067;51.930;4.492;2024-02-23T06:35:59;98772.81;;;24.66;38.02
79589;BME280;69067;51.930;4.492;2024-02-23T06:38:25;98761.69;;;24.67;38.80
79589;BME280;69067;51.930;4.492;2024-02-23T06:40:51;98758.41;;;24.65;38.87
79589;BME280;69067;51.930;4.492;2024-02-23T06:43:17;98760.81;;;24.62;38.68
79589;BME280;69067;51.930;4.492;2024-02-23T06:45:43;98762.47;;;24.63;38.52
79589;BME280;69067;51.930;4.492;2024-02-23T06:48:09;98755.09;;;24.58;38.21
79589;BME280;69067;51.930;4.492;2024-02-23T06:50:35;98775.31;;;24.72;38.56
79589;BME280;69067;51.930;4.492;2024-02-23T06:53:01;98767.91;;;24.63;38.51
79589;BME280;69067;51.930;4.492;2024-02-23T06:55:28;98770.38;;;24.69;38.24
79589;BME280;69067;51.930;4.492;2024-02-23T06:57:54;98772.59;;;24.72;38.27
79589;BME280;69067;51.930;4.492;2024-02-23T07:00:20;98771.50;;;24.68;38.54
79589;BME280;69067;51.930;4.492;2024-02-23T07:02:47;98768.47;;;24.70;39.11
79589;BME280;69067;51.930;4.492;2024-02-23T07:05:13;98764.94;;;24.69;38.04
79589;BME280;69067;51.930;4.492;2024-02-23T07:07:40;98767.38;;;24.66;38.29
79589;BME280;69067;51.930;4.492;2024-02-23T07:10:07;98768.78;;;24.68;38.59
79589;BME280;69067;51.930;4.492;2024-02-23T07:12:36;98763.53;;;24.62;38.73
79589;BME280;69067;51.930;4.492;2024-02-23T07:15:01;98765.47;;;24.66;38.27
79589;BME280;69067;51.930;4.492;2024-02-23T07:17:27;98754.28;;;24.58;38.39
79589;BME280;69067;51.930;4.492;2024-02-23T07:19:54;98766.03;;;24.68;38.29
79589;BME280;69067;51.930;4.492;2024-02-23T07:22:21;98770.94;;;24.71;38.60
79589;BME280;69067;51.930;4.492;2024-02-23T07:24:47;98759.50;;;24.69;38.64
79589;BME280;69067;51.930;4.492;2024-02-23T07:27:12;98757.88;;;24.68;38.50
79589;BME280;69067;51.930;4.492;2024-02-23T07:29:38;98768.22;;;24.71;38.38
79589;BME280;69067;51.930;4.492;2024-02-23T07:32:04;98761.38;;;24.69;38.43
79589;BME280;69067;51.930;4.492;2024-02-23T07:34:31;98766.06;;;24.79;38.61
79589;BME280;69067;51.930;4.492;2024-02-23T07:36:57;98767.97;;;24.73;38.37
79589;BME280;69067;51.930;4.492;2024-02-23T07:39:22;98770.41;;;24.75;38.52
79589;BME280;69067;51.930;4.492;2024-02-23T07:41:48;98762.78;;;24.77;38.57
79589;BME280;69067;51.930;4.492;2024-02-23T07:44:14;98764.44;;;24.83;38.50
79589;BME280;69067;51.930;4.492;2024-02-23T07:46:40;98746.75;;;24.80;38.55
79589;BME280;69067;51.930;4.492;2024-02-23T07:49:07;98752.47;;;24.84;38.30
79589;BME280;69067;51.930;4.492;2024-02-23T07:51:33;98754.13;;;24.85;38.87
79589;BME280;69067;51.930;4.492;2024-02-23T07:53:58;98755.47;;;24.82;38.44
79589;BME280;69067;51.930;4.492;2024-02-23T07:56:24;98734.16;;;24.64;38.62
79589;BME280;69067;51.930;4.492;2024-02-23T07:58:50;98738.03;;;24.83;38.22
79589;BME280;69067;51.930;4.492;2024-02-23T08:01:16;98746.44;;;24.77;38.57
79589;BME280;69067;51.930;4.492;2024-02-23T08:03:41;98742.66;;;24.72;38.95
79589;BME280;69067;51.930;4.492;2024-02-23T08:06:07;98748.09;;;24.83;38.52
79589;BME280;69067;51.930;4.492;2024-02-23T08:08:33;98749.19;;;24.77;38.71
79589;BME280;69067;51.930;4.492;2024-02-23T08:11:03;98763.91;;;24.81;38.90
79589;BME280;69067;51.930;4.492;2024-02-23T08:13:29;98765.56;;;24.82;38.74
79589;BME280;69067;51.930;4.492;2024-02-23T08:15:55;98746.19;;;24.78;38.76
79589;BME280;69067;51.930;4.492;2024-02-23T08:18:20;98763.66;;;24.82;38.06
79589;BME280;69067;51.930;4.492;2024-02-23T08:20:48;98747.59;;;24.86;38.68
79589;BME280;69067;51.930;4.492;2024-02-23T08:23:14;98760.16;;;24.97;39.29
79589;BME280;69067;51.930;4.492;2024-02-23T08:25:40;98763.25;;;25.26;39.26
79589;BME280;69067;51.930;4.492;2024-02-23T08:28:06;98769.41;;;24.91;39.52
79589;BME280;69067;51.930;4.492;2024-02-23T08:30:33;98784.56;;;24.77;39.80
79589;BME280;69067;51.930;4.492;2024-02-23T08:32:59;98773.97;;;24.80;40.06
79589;BME280;69067;51.930;4.492;2024-02-23T08:35:27;98770.44;;;24.80;39.50
79589;BME280;69067;51.930;4.492;2024-02-23T08:37:53;98780.25;;;24.81;38.86
79589;BME280;69067;51.930;4.492;2024-02-23T08:40:19;98762.84;;;24.87;39.26
79589;BME280;69067;51.930;4.492;2024-02-23T08:42:45;98755.69;;;24.65;39.43
79589;BME280;69067;51.930;4.492;2024-02-23T08:45:13;98766.56;;;24.65;39.57
79589;BME280;69067;51.930;4.492;2024-02-23T08:47:39;98766.06;;;24.73;39.08
79589;BME280;69067;51.930;4.492;2024-02-23T08:50:06;98765.72;;;24.60;39.60
79589;BME280;69067;51.930;4.492;2024-02-23T08:52:32;98764.09;;;24.64;39.24
79589;BME280;69067;51.930;4.492;2024-02-23T08:54:58;98759.81;;;24.78;38.94
79589;BME280;69067;51.930;4.492;2024-02-23T08:57:26;98742.94;;;24.81;38.47
79589;BME280;69067;51.930;4.492;2024-02-23T08:59:52;98741.56;;;24.73;38.86
79589;BME280;69067;51.930;4.492;2024-02-23T09:02:18;98740.75;;;24.83;38.69
79589;BME280;69067;51.930;4.492;2024-02-23T09:04:45;98735.03;;;24.75;38.38
79589;BME280;69067;51.930;4.492;2024-02-23T09:07:11;98724.16;;;24.75;39.06
79589;BME280;69067;51.930;4.492;2024-02-23T09:09:37;98753.84;;;24.86;38.46
79589;BME280;69067;51.930;4.492;2024-02-23T09:12:03;98745.06;;;24.69;39.49
79589;BME280;69067;51.930;4.492;2024-02-23T09:14:32;98754.66;;;24.82;38.96
79589;BME280;69067;51.930;4.492;2024-02-23T09:16:58;98739.19;;;24.92;38.49
79589;BME280;69067;51.930;4.492;2024-02-23T09:19:24;98742.50;;;24.99;38.60
79589;BME280;69067;51.930;4.492;2024-02-23T09:21:50;98759.34;;;24.91;38.46
79589;BME280;69067;51.930;4.492;2024-02-23T09:24:15;98753.38;;;24.99;38.61
79589;BME280;69067;51.930;4.492;2024-02-23T09:26:41;98759.63;;;24.95;38.53
79589;BME280;69067;51.930;4.492;2024-02-23T09:29:07;98772.75;;;25.03;38.25
79589;BME280;69067;51.930;4.492;2024-02-23T09:31:33;98774.38;;;25.09;37.77
79589;BME280;69067;51.930;4.492;2024-02-23T09:34:00;98772.13;;;24.91;38.25
79589;BME280;69067;51.930;4.492;2024-02-23T09:36:26;98778.72;;;25.00;37.76
79589;BME280;69067;51.930;4.492;2024-02-23T09:38:52;98758.00;;;24.99;37.55
79589;BME280;69067;51.930;4.492;2024-02-23T09:41:22;98785.28;;;25.14;37.27
79589;BME280;69067;51.930;4.492;2024-02-23T09:43:49;98777.94;;;25.09;37.47
79589;BME280;69067;51.930;4.492;2024-02-23T09:46:16;98772.13;;;24.91;37.89
79589;BME280;69067;51.930;4.492;2024-02-23T09:48:43;98790.16;;;25.07;37.57
79589;BME280;69067;51.930;4.492;2024-02-23T09:51:11;98798.66;;;25.21;37.23
79589;BME280;69067;51.930;4.492;2024-02-23T09:53:38;98799.72;;;25.15;37.29
79589;BME280;69067;51.930;4.492;2024-02-23T09:56:05;98784.16;;;25.00;37.49
79589;BME280;69067;51.930;4.492;2024-02-23T09:58:32;98797.44;;;24.91;37.23
79589;BME280;69067;51.930;4.492;2024-02-23T10:00:59;98803.25;;;25.10;37.01
79589;BME280;69067;51.930;4.492;2024-02-23T10:03:28;98810.31;;;25.11;37.24
79589;BME280;69067;51.930;4.492;2024-02-23T10:05:59;98802.16;;;25.11;36.67
79589;BME280;69067;51.930;4.492;2024-02-23T10:08:27;98809.50;;;25.10;37.29
79589;BME280;69067;51.930;4.492;2024-02-23T10:10:54;98804.63;;;25.13;37.34
79589;BME280;69067;51.930;4.492;2024-02-23T10:13:22;98828.56;;;25.10;36.79
79589;BME280;69067;51.930;4.492;2024-02-23T10:15:52;98829.44;;;25.16;36.64
79589;BME280;69067;51.930;4.492;2024-02-23T10:18:19;98810.88;;;25.13;36.89
79589;BME280;69067;51.930;4.492;2024-02-23T10:20:46;98830.50;;;25.15;36.58
79589;BME280;69067;51.930;4.492;2024-02-23T10:23:12;98831.59;;;25.19;36.64
79589;BME280;69067;51.930;4.492;2024-02-23T10:25:38;98817.41;;;25.17;36.69
79589;BME280;69067;51.930;4.492;2024-02-23T10:28:05;98832.09;;;25.11;37.05
79589;BME280;69067;51.930;4.492;2024-02-23T10:30:32;98843.56;;;25.18;36.69
79589;BME280;69067;51.930;4.492;2024-02-23T10:32:59;98837.03;;;25.14;36.70
79589;BME280;69067;51.930;4.492;2024-02-23T10:35:25;98838.13;;;25.18;36.67
79589;BME280;69067;51.930;4.492;2024-02-23T10:37:54;98854.19;;;25.15;37.14
79589;BME280;69067;51.930;4.492;2024-02-23T10:40:21;98842.47;;;25.09;36.59
79589;BME280;69067;51.930;4.492;2024-02-23T10:42:51;98853.38;;;25.19;36.39
79589;BME280;69067;51.930;4.492;2024-02-23T10:45:21;98840.56;;;25.15;36.37
79589;BME280;69067;51.930;4.492;2024-02-23T10:47:48;98849.03;;;25.18;36.30
79589;BME280;69067;51.930;4.492;2024-02-23T10:50:17;98846.84;;;25.15;36.13
79589;BME280;69067;51.930;4.492;2024-02-23T10:52:45;98859.63;;;25.09;36.46
79589;BME280;69067;51.930;4.492;2024-02-23T10:55:14;98880.38;;;25.21;36.12
79589;BME280;69067;51.930;4.492;2024-02-23T10:57:40;98859.38;;;25.16;36.24
79589;BME280;69067;51.930;4.492;2024-02-23T11:00:08;98850.09;;;25.17;35.97
79589;BME280;69067;51.930;4.492;2024-02-23T11:02:43;98861.00;;;25.12;35.30
79589;BME280;69067;51.930;4.492;2024-02-23T11:05:13;98868.66;;;25.25;36.02
79589;BME280;69067;51.930;4.492;2024-02-23T11:07:41;98880.88;;;25.13;35.90
79589;BME280;69067;51.930;4.492;2024-02-23T11:10:07;98862.06;;;25.11;36.13
79589;BME280;69067;51.930;4.492;2024-02-23T11:12:35;98858.53;;;25.10;36.30
79589;BME280;69067;51.930;4.492;2024-02-23T11:15:02;98862.63;;;25.08;36.05
79589;BME280;69067;51.930;4.492;2024-02-23T11:17:30;98871.03;;;25.06;35.78
79589;BME280;69067;51.930;4.492;2024-02-23T11:19:56;98859.34;;;25.11;36.37
79589;BME280;69067;51.930;4.492;2024-02-23T11:22:33;98864.75;;;25.01;35.74
79589;BME280;69067;51.930;4.492;2024-02-23T11:25:07;98888.78;;;25.19;35.79
79589;BME280;69067;51.930;4.492;2024-02-23T11:27:38;98899.38;;;25.10;36.13
79589;BME280;69067;51.930;4.492;2024-02-23T11:30:09;98893.66;;;25.12;35.96
79589;BME280;69067;51.930;4.492;2024-02-23T11:32:44;98914.38;;;25.13;35.60
79589;BME280;69067;51.930;4.492;2024-02-23T11:35:17;98896.13;;;25.08;35.62
79589;BME280;69067;51.930;4.492;2024-02-23T11:38:03;98889.88;;;25.13;35.15
79589;BME280;69067;51.930;4.492;2024-02-23T11:40:31;98903.75;;;25.11;35.63
79589;BME280;69067;51.930;4.492;2024-02-23T11:42:58;98904.56;;;25.07;35.74
79589;BME280;69067;51.930;4.492;2024-02-23T11:45:30;98899.13;;;25.12;35.39
79589;BME280;69067;51.930;4.492;2024-02-23T11:47:56;98902.38;;;25.09;36.19
79589;BME280;69067;51.930;4.492;2024-02-23T11:50:22;98891.44;;;25.04;35.43
79589;BME280;69067;51.930;4.492;2024-02-23T11:52:48;98896.97;;;25.19;34.71
79589;BME280;69067;51.930;4.492;2024-02-23T11:55:19;98899.63;;;25.04;35.29
79589;BME280;69067;51.930;4.492;2024-02-23T11:57:48;98908.91;;;25.08;35.30
79589;BME280;69067;51.930;4.492;2024-02-23T12:00:14;98900.19;;;25.06;35.44
79589;BME280;69067;51.930;4.492;2024-02-23T12:02:40;98906.47;;;25.11;35.14
79589;BME280;69067;51.930;4.492;2024-02-23T12:05:06;98898.84;;;25.14;34.81
79589;BME280;69067;51.930;4.492;2024-02-23T12:07:33;98901.59;;;25.14;35.34
79589;BME280;69067;51.930;4.492;2024-02-23T12:10:00;98901.03;;;25.11;35.45
79589;BME280;69067;51.930;4.492;2024-02-23T12:12:26;98907.31;;;25.17;35.24
79589;BME280;69067;51.930;4.492;2024-02-23T12:14:52;98902.34;;;25.04;35.51
79589;BME280;69067;51.930;4.492;2024-02-23T12:17:18;98900.16;;;25.01;35.05
79589;BME280;69067;51.930;4.492;2024-02-23T12:19:44;98907.25;;;25.02;35.43
79589;BME280;69067;51.930;4.492;2024-02-23T12:22:10;98913.28;;;25.09;35.39
79589;BME280;69067;51.930;4.492;2024-02-23T12:24:37;98900.66;;;24.93;35.57
79589;BME280;69067;51.930;4.492;2024-02-23T12:27:03;98891.44;;;24.99;35.04
79589;BME280;69067;51.930;4.492;2024-02-23T12:29:30;98903.72;;;25.01;35.25
79589;BME280;69067;51.930;4.492;2024-02-23T12:32:06;98920.88;;;25.07;35.18
79589;BME280;69067;51.930;4.492;2024-02-23T12:34:32;98922.78;;;25.01;35.03
79589;BME280;69067;51.930;4.492;2024-02-23T12:36:58;98918.16;;;25.02;35.03
79589;BME280;69067;51.930;4.492;2024-02-23T12:39:24;98920.06;;;25.06;34.87
79589;BME280;69067;51.930;4.492;2024-02-23T12:41:50;98923.03;;;25.05;35.00
79589;BME280;69067;51.930;4.492;2024-02-23T12:44:16;98916.25;;;25.02;35.23
79589;BME280;69067;51.930;4.492;2024-02-23T12:46:42;98916.78;;;25.04;34.97
79589;BME280;69067;51.930;4.492;2024-02-23T12:49:08;98928.50;;;25.05;34.88
79589;BME280;69067;51.930;4.492;2024-02-23T12:51:33;98917.38;;;25.11;35.25
79589;BME280;69067;51.930;4.492;2024-02-23T12:54:00;98933.44;;;25.08;35.20
79589;BME280;69067;51.930;4.492;2024-02-23T12:56:26;98931.53;;;25.08;34.99